»·PEaware :: N458JB KSAN-KSBA

N458JB :: KSAN-KSBA

FLIGHT INFORMATION

Flight Status: Arrived
Operator: Privately registered:
United States
More flights under this callsign
Pilot: Jordan V. (27588)
Aircraft: SOCATA TBM-900
(TBM9)
More flights by this aircraft type
Origin: KSAN San Diego Intl-Lindbergh
United States
Destination: KSBA Santa Barbara Mun
United States
More flights between these airports :: More routes between these airports
Route: +CWARD2 CWARD AVOLS V208 VTU VTU282 KWANG
File this flight plan on PilotEdge
Remarks:
Altitude:
(Current/Filed)
8,000ft
Speed:
(Current/Filed)
250kts
Departed: 13-Feb-20 12:36 PM
Arrived: 13-Feb-20 01:35 PM
Distance/Time
Traveled:
167nm/0:59
Distance/Time
To Go:
Arrived

Flight Plot

Page will automatically refresh every two minutes.

Flight plan parsing failed; only flown route is shown


Map Options




Map Legend


Flown Route
Filed Route
Departure Airport
Arrival Airport
Navaid (VOR, NDB)
Fix

Horizontal Profiles

Position Reports

Time Latitude Longitude Heading Altitude Ground
Speed
13-Feb-20 12:07 32.732420 -117.176641 193 18ft 0kts
13-Feb-20 12:08 32.732420 -117.176641 193 18ft 0kts
13-Feb-20 12:09 32.732420 -117.176641 193 18ft 0kts
13-Feb-20 12:10 32.732420 -117.176641 193 18ft 0kts
13-Feb-20 12:11 32.732414 -117.176643 190 18ft 0kts
13-Feb-20 12:12 32.732412 -117.176643 192 18ft 0kts
13-Feb-20 12:13 32.732412 -117.176643 192 18ft 0kts
13-Feb-20 12:14 32.732412 -117.176643 192 18ft 0kts
13-Feb-20 12:15 32.732412 -117.176643 192 18ft 0kts
13-Feb-20 12:16 32.732412 -117.176643 192 18ft 0kts
13-Feb-20 12:17 32.732412 -117.176643 192 18ft 0kts
13-Feb-20 12:18 32.732412 -117.176643 192 18ft 0kts
13-Feb-20 12:19 32.732412 -117.176643 192 18ft 0kts
13-Feb-20 12:20 32.732412 -117.176643 192 18ft 0kts
13-Feb-20 12:21 32.732412 -117.176643 192 18ft 0kts
13-Feb-20 12:22 32.732412 -117.176643 192 18ft 0kts
13-Feb-20 12:23 32.732412 -117.176643 192 18ft 0kts
13-Feb-20 12:24 32.732412 -117.176643 192 18ft 0kts
13-Feb-20 12:25 32.732413 -117.176643 191 18ft 0kts
13-Feb-20 12:26 32.732413 -117.176643 191 18ft 0kts
13-Feb-20 12:27 32.732413 -117.176643 191 18ft 0kts
13-Feb-20 12:28 32.732413 -117.176643 191 18ft 0kts
13-Feb-20 12:30 32.732413 -117.176643 191 18ft 0kts
13-Feb-20 12:31 32.731858 -117.176571 166 18ft 10kts
13-Feb-20 12:32 32.730871 -117.175421 143 18ft 0kts
13-Feb-20 12:33 32.730871 -117.175421 143 18ft 0kts
13-Feb-20 12:34 32.730871 -117.175421 143 18ft 0kts
13-Feb-20 12:35 32.730162 -117.175448 247 18ft 10kts
13-Feb-20 12:36 32.734552 -117.194076 285 654ft 106kts
13-Feb-20 12:37 32.749929 -117.233926 304 2374ft 150kts
13-Feb-20 12:38 32.771790 -117.271246 304 4722ft 132kts
13-Feb-20 12:39 32.792763 -117.307057 304 6671ft 134kts
13-Feb-20 12:40 32.816771 -117.344978 307 8056ft 179kts
13-Feb-20 12:41 32.852770 -117.400815 307 8012ft 230kts
13-Feb-20 12:42 32.894738 -117.466025 307 8005ft 250kts
13-Feb-20 12:43 32.938957 -117.534833 307 8004ft 254kts
13-Feb-20 12:44 32.982459 -117.602660 307 8007ft 254kts
13-Feb-20 12:45 33.025028 -117.669142 307 8007ft 250kts
13-Feb-20 12:46 33.068351 -117.734274 319 7997ft 251kts
13-Feb-20 12:46 33.113241 -117.779805 319 8009ft 255kts
13-Feb-20 12:48 33.178091 -117.845842 319 8009ft 257kts
13-Feb-20 12:49 33.245957 -117.874956 348 8028ft 256kts
13-Feb-20 12:49 33.306687 -117.889997 348 8026ft 257kts
13-Feb-20 12:50 33.375307 -117.915607 306 8005ft 256kts
13-Feb-20 12:52 33.373864 -118.014802 263 8022ft 256kts
13-Feb-20 12:52 33.366939 -118.086639 263 8022ft 256kts
13-Feb-20 12:53 33.358627 -118.172065 263 8006ft 257kts
13-Feb-20 12:54 33.353659 -118.257134 278 8004ft 256kts
13-Feb-20 12:55 33.364855 -118.341614 278 8009ft 255kts
13-Feb-20 12:56 33.381023 -118.423894 315 7980ft 257kts
13-Feb-20 12:57 33.440769 -118.475268 324 8009ft 257kts
13-Feb-20 12:58 33.499325 -118.524693 324 8009ft 257kts
13-Feb-20 12:59 33.557849 -118.574170 324 8009ft 257kts
13-Feb-20 13:00 33.616828 -118.624122 324 8009ft 257kts
13-Feb-20 13:01 33.676410 -118.674666 324 8007ft 256kts
13-Feb-20 13:02 33.736477 -118.725701 324 8004ft 256kts
13-Feb-20 13:03 33.795900 -118.776289 324 8002ft 255kts
13-Feb-20 13:04 33.840098 -118.842227 291 8010ft 255kts
13-Feb-20 13:05 33.867560 -118.924307 291 8005ft 255kts
13-Feb-20 13:06 33.895746 -119.006132 291 8013ft 254kts
13-Feb-20 13:07 33.958431 -119.033321 354 8019ft 255kts
13-Feb-20 13:08 34.030510 -119.040621 354 8018ft 255kts
13-Feb-20 13:09 34.102972 -119.048529 348 8012ft 255kts
13-Feb-20 13:10 34.144555 -119.119630 296 6749ft 268kts
13-Feb-20 13:11 34.178308 -119.200246 296 6005ft 253kts
13-Feb-20 13:12 34.209702 -119.275313 296 6007ft 248kts
13-Feb-20 13:13 34.239980 -119.347878 296 6006ft 234kts
13-Feb-20 13:14 34.270080 -119.420158 296 5835ft 223kts
13-Feb-20 13:15 34.297797 -119.486859 296 6032ft 221kts
13-Feb-20 13:16 34.315901 -119.554561 277 6031ft 210kts
13-Feb-20 13:17 34.323780 -119.624434 277 6029ft 208kts
13-Feb-20 13:18 34.331665 -119.693977 277 6028ft 208kts
13-Feb-20 13:19 34.339590 -119.763561 277 6027ft 208kts
13-Feb-20 13:20 34.347575 -119.833449 277 6027ft 208kts
13-Feb-20 13:21 34.355577 -119.903331 277 6027ft 208kts
13-Feb-20 13:22 34.363660 -119.973766 277 6027ft 208kts
13-Feb-20 13:23 34.371625 -120.043217 277 6024ft 208kts
13-Feb-20 13:24 34.373993 -120.113876 267 5482ft 218kts
13-Feb-20 13:25 34.371331 -120.188889 267 4046ft 222kts
13-Feb-20 13:26 34.394989 -120.233576 25 3996ft 191kts
13-Feb-20 13:27 34.420862 -120.180960 69 4005ft 179kts
13-Feb-20 13:28 34.422253 -120.121329 87 4018ft 178kts
13-Feb-20 13:29 34.423482 -120.055068 89 3219ft 215kts
13-Feb-20 13:30 34.424952 -119.980032 89 2051ft 223kts
13-Feb-20 13:31 34.426206 -119.917737 90 1107ft 132kts
13-Feb-20 13:32 34.426965 -119.880437 90 478ft 100kts
13-Feb-20 13:33 34.427599 -119.849390 88 15ft 50kts
13-Feb-20 13:34 34.426873 -119.846338 164 15ft 0kts
13-Feb-20 13:35 34.426873 -119.846338 164 15ft 0kts
13-Feb-20 13:36 34.426735 -119.846246 140 15ft 6kts
13-Feb-20 13:37 34.426639 -119.841509 91 15ft 0kts
13-Feb-20 13:38 34.426232 -119.838197 165 15ft 15kts
13-Feb-20 13:39 34.422462 -119.836739 160 15ft 13kts
13-Feb-20 13:40 34.420910 -119.835427 94 15ft 0kts
13-Feb-20 13:41 34.420910 -119.835427 94 15ft 0kts
13-Feb-20 13:42 34.420910 -119.835427 94 15ft 0kts
13-Feb-20 13:43 34.420910 -119.835427 94 15ft 0kts
13-Feb-20 13:44 34.420910 -119.835427 94 15ft 0kts
13-Feb-20 13:45 34.420910 -119.835427 94 15ft 0kts
13-Feb-20 13:46 34.420910 -119.835427 94 15ft 0kts
13-Feb-20 13:47 34.420910 -119.835427 94 15ft 0kts
13-Feb-20 13:48 34.420910 -119.835427 94 15ft 0kts

Navigation Log

Ident Type
Flight plan parsing failed, navigation log unavailable